sensor_id;sensor_type;location;lat;lon;timestamp;temperature;humidity
40758;DHT22;26462;47.384;19.218;2024-03-08T00:01:45;5.80;99.90
40758;DHT22;26462;47.384;19.218;2024-03-08T00:04:15;5.90;99.90
40758;DHT22;26462;47.384;19.218;2024-03-08T00:06:43;5.10;99.90
40758;DHT22;26462;47.384;19.218;2024-03-08T00:09:13;5.90;99.90
40758;DHT22;26462;47.384;19.218;2024-03-08T00:11:43;5.90;99.90
40758;DHT22;26462;47.384;19.218;2024-03-08T00:14:11;5.90;99.90
40758;DHT22;26462;47.384;19.218;2024-03-08T00:16:40;5.90;99.90
40758;DHT22;26462;47.384;19.218;2024-03-08T00:19:10;6.80;99.90
40758;DHT22;26462;47.384;19.218;2024-03-08T00:21:40;5.90;99.90
40758;DHT22;26462;47.384;19.218;2024-03-08T00:24:09;5.90;99.90
40758;DHT22;26462;47.384;19.218;2024-03-08T00:26:37;5.90;99.90
40758;DHT22;26462;47.384;19.218;2024-03-08T00:29:06;5.90;99.90
40758;DHT22;26462;47.384;19.218;2024-03-08T00:31:34;5.90;99.90
40758;DHT22;26462;47.384;19.218;2024-03-08T00:34:03;5.90;99.90
40758;DHT22;26462;47.384;19.218;2024-03-08T00:36:31;5.90;99.90
40758;DHT22;26462;47.384;19.218;2024-03-08T00:39:01;5.90;99.90
40758;DHT22;26462;47.384;19.218;2024-03-08T00:41:33;7.20;99.90
40758;DHT22;26462;47.384;19.218;2024-03-08T00:44:02;6.00;99.90
40758;DHT22;26462;47.384;19.218;2024-03-08T00:46:31;5.90;99.90
40758;DHT22;26462;47.384;19.218;2024-03-08T00:49:01;6.00;99.90
40758;DHT22;26462;47.384;19.218;2024-03-08T00:51:29;6.00;99.90
40758;DHT22;26462;47.384;19.218;2024-03-08T00:53:58;5.90;99.90
40758;DHT22;26462;47.384;19.218;2024-03-08T00:56:28;5.90;99.90
40758;DHT22;26462;47.384;19.218;2024-03-08T00:58:56;5.90;99.90
40758;DHT22;26462;47.384;19.218;2024-03-08T01:01:25;5.90;99.90
40758;DHT22;26462;47.384;19.218;2024-03-08T01:03:54;6.00;99.90
40758;DHT22;26462;47.384;19.218;2024-03-08T01:06:24;5.90;99.90
40758;DHT22;26462;47.384;19.218;2024-03-08T01:08:52;5.90;99.90
40758;DHT22;26462;47.384;19.218;2024-03-08T01:11:21;5.80;99.90
40758;DHT22;26462;47.384;19.218;2024-03-08T01:13:50;5.80;99.90
40758;DHT22;26462;47.384;19.218;2024-03-08T01:16:20;5.90;99.90
40758;DHT22;26462;47.384;19.218;2024-03-08T01:18:49;5.90;99.90
40758;DHT22;26462;47.384;19.218;2024-03-08T01:21:18;5.90;99.90
40758;DHT22;26462;47.384;19.218;2024-03-08T01:23:47;5.80;99.90
40758;DHT22;26462;47.384;19.218;2024-03-08T01:26:15;5.80;99.90
40758;DHT22;26462;47.384;19.218;2024-03-08T01:28:44;5.80;99.90
40758;DHT22;26462;47.384;19.218;2024-03-08T01:31:13;5.80;99.90
40758;DHT22;26462;47.384;19.218;2024-03-08T01:33:43;5.90;99.90
40758;DHT22;26462;47.384;19.218;2024-03-08T01:36:11;5.80;99.90
40758;DHT22;26462;47.384;19.218;2024-03-08T01:38:42;5.80;99.90
40758;DHT22;26462;47.384;19.218;2024-03-08T01:41:11;5.80;99.90
40758;DHT22;26462;47.384;19.218;2024-03-08T01:43:40;5.70;99.90
40758;DHT22;26462;47.384;19.218;2024-03-08T01:46:09;5.80;99.90
40758;DHT22;26462;47.384;19.218;2024-03-08T01:48:41;5.80;99.90
40758;DHT22;26462;47.384;19.218;2024-03-08T01:51:10;5.80;99.90
40758;DHT22;26462;47.384;19.218;2024-03-08T01:53:39;5.80;99.90
40758;DHT22;26462;47.384;19.218;2024-03-08T01:56:09;5.80;99.90
40758;DHT22;26462;47.384;19.218;2024-03-08T01:58:41;5.70;99.90
40758;DHT22;26462;47.384;19.218;2024-03-08T02:01:12;5.70;99.90
40758;DHT22;26462;47.384;19.218;2024-03-08T02:03:44;5.70;99.90
40758;DHT22;26462;47.384;19.218;2024-03-08T02:06:13;5.70;99.90
40758;DHT22;26462;47.384;19.218;2024-03-08T02:08:43;5.70;99.90
40758;DHT22;26462;47.384;19.218;2024-03-08T02:11:14;5.70;99.90
40758;DHT22;26462;47.384;19.218;2024-03-08T02:13:43;5.70;99.90
40758;DHT22;26462;47.384;19.218;2024-03-08T02:16:11;5.70;99.90
40758;DHT22;26462;47.384;19.218;2024-03-08T02:18:40;5.70;99.90
40758;DHT22;26462;47.384;19.218;2024-03-08T02:21:10;5.60;99.90
40758;DHT22;26462;47.384;19.218;2024-03-08T02:23:40;5.70;99.90
40758;DHT22;26462;47.384;19.218;2024-03-08T02:26:08;5.70;99.90
40758;DHT22;26462;47.384;19.218;2024-03-08T02:28:37;5.70;99.90
40758;DHT22;26462;47.384;19.218;2024-03-08T02:31:05;5.80;99.90
40758;DHT22;26462;47.384;19.218;2024-03-08T02:33:35;5.80;99.90
40758;DHT22;26462;47.384;19.218;2024-03-08T02:36:04;5.70;99.90
40758;DHT22;26462;47.384;19.218;2024-03-08T02:38:35;5.70;99.90
40758;DHT22;26462;47.384;19.218;2024-03-08T02:41:04;5.80;99.90
40758;DHT22;26462;47.384;19.218;2024-03-08T02:43:33;5.70;99.90
40758;DHT22;26462;47.384;19.218;2024-03-08T02:46:01;5.70;99.90
40758;DHT22;26462;47.384;19.218;2024-03-08T02:48:30;5.70;99.90
40758;DHT22;26462;47.384;19.218;2024-03-08T02:50:59;5.80;99.90
40758;DHT22;26462;47.384;19.218;2024-03-08T02:53:29;5.80;99.90
40758;DHT22;26462;47.384;19.218;2024-03-08T02:55:59;5.70;99.90
40758;DHT22;26462;47.384;19.218;2024-03-08T02:58:27;5.70;99.90
40758;DHT22;26462;47.384;19.218;2024-03-08T03:00:56;5.70;99.90
40758;DHT22;26462;47.384;19.218;2024-03-08T03:03:25;5.70;99.90
40758;DHT22;26462;47.384;19.218;2024-03-08T03:05:54;5.60;99.90
40758;DHT22;26462;47.384;19.218;2024-03-08T03:08:23;5.70;99.90
40758;DHT22;26462;47.384;19.218;2024-03-08T03:10:53;5.80;99.90
40758;DHT22;26462;47.384;19.218;2024-03-08T03:13:25;5.60;99.90
40758;DHT22;26462;47.384;19.218;2024-03-08T03:15:56;5.70;99.90
40758;DHT22;26462;47.384;19.218;2024-03-08T03:18:25;5.70;99.90
40758;DHT22;26462;47.384;19.218;2024-03-08T03:20:54;5.70;99.90
40758;DHT22;26462;47.384;19.218;2024-03-08T03:23:23;5.70;99.90
40758;DHT22;26462;47.384;19.218;2024-03-08T03:25:53;5.70;99.90
40758;DHT22;26462;47.384;19.218;2024-03-08T03:28:25;5.80;99.90
40758;DHT22;26462;47.384;19.218;2024-03-08T03:30:55;5.70;99.90
40758;DHT22;26462;47.384;19.218;2024-03-08T03:33:26;5.70;99.90
40758;DHT22;26462;47.384;19.218;2024-03-08T03:35:54;6.00;99.90
40758;DHT22;26462;47.384;19.218;2024-03-08T03:38:23;5.70;99.90
40758;DHT22;26462;47.384;19.218;2024-03-08T03:40:53;5.70;99.90
40758;DHT22;26462;47.384;19.218;2024-03-08T03:43:25;5.70;99.90
40758;DHT22;26462;47.384;19.218;2024-03-08T03:45:54;5.10;99.90
40758;DHT22;26462;47.384;19.218;2024-03-08T03:48:23;5.70;99.90
40758;DHT22;26462;47.384;19.218;2024-03-08T03:50:52;5.60;99.90
40758;DHT22;26462;47.384;19.218;2024-03-08T03:53:20;5.70;99.90
40758;DHT22;26462;47.384;19.218;2024-03-08T03:55:49;5.70;99.90
40758;DHT22;26462;47.384;19.218;2024-03-08T03:58:18;5.70;99.90
40758;DHT22;26462;47.384;19.218;2024-03-08T04:00:51;5.70;99.90
40758;DHT22;26462;47.384;19.218;2024-03-08T04:03:21;5.60;99.90
40758;DHT22;26462;47.384;19.218;2024-03-08T04:05:53;5.60;99.90
40758;DHT22;26462;47.384;19.218;2024-03-08T04:08:24;5.60;99.90
40758;DHT22;26462;47.384;19.218;2024-03-08T04:11:09;5.70;99.90
40758;DHT22;26462;47.384;19.218;2024-03-08T04:13:43;5.70;99.90
40758;DHT22;26462;47.384;19.218;2024-03-08T04:16:19;5.60;99.90
40758;DHT22;26462;47.384;19.218;2024-03-08T04:18:49;5.70;99.90
40758;DHT22;26462;47.384;19.218;2024-03-08T04:21:18;5.60;99.90
40758;DHT22;26462;47.384;19.218;2024-03-08T04:23:47;5.60;99.90
40758;DHT22;26462;47.384;19.218;2024-03-08T04:26:16;5.60;99.90
40758;DHT22;26462;47.384;19.218;2024-03-08T04:28:47;5.60;99.90
40758;DHT22;26462;47.384;19.218;2024-03-08T04:31:16;5.70;99.90
40758;DHT22;26462;47.384;19.218;2024-03-08T04:33:46;5.70;99.90
40758;DHT22;26462;47.384;19.218;2024-03-08T04:36:15;5.60;99.90
40758;DHT22;26462;47.384;19.218;2024-03-08T04:38:45;6.80;99.90
40758;DHT22;26462;47.384;19.218;2024-03-08T04:41:16;5.60;99.90
40758;DHT22;26462;47.384;19.218;2024-03-08T04:43:45;5.60;99.90
40758;DHT22;26462;47.384;19.218;2024-03-08T04:46:13;4.70;99.90
40758;DHT22;26462;47.384;19.218;2024-03-08T04:48:46;5.70;99.90
40758;DHT22;26462;47.384;19.218;2024-03-08T04:51:16;5.60;99.90
40758;DHT22;26462;47.384;19.218;2024-03-08T04:53:49;5.50;99.90
40758;DHT22;26462;47.384;19.218;2024-03-08T04:56:18;5.50;99.90
40758;DHT22;26462;47.384;19.218;2024-03-08T04:58:49;5.50;99.90
40758;DHT22;26462;47.384;19.218;2024-03-08T05:01:18;5.50;99.90
40758;DHT22;26462;47.384;19.218;2024-03-08T05:03:54;5.60;99.90
40758;DHT22;26462;47.384;19.218;2024-03-08T05:06:32;5.60;99.90
40758;DHT22;26462;47.384;19.218;2024-03-08T05:09:05;5.60;99.90
40758;DHT22;26462;47.384;19.218;2024-03-08T05:11:41;5.60;99.90
40758;DHT22;26462;47.384;19.218;2024-03-08T05:14:11;5.50;99.90
40758;DHT22;26462;47.384;19.218;2024-03-08T05:16:44;5.50;99.90
40758;DHT22;26462;47.384;19.218;2024-03-08T05:19:18;5.50;99.90
40758;DHT22;26462;47.384;19.218;2024-03-08T05:21:49;5.60;99.90
40758;DHT22;26462;47.384;19.218;2024-03-08T05:24:18;5.60;99.90
40758;DHT22;26462;47.384;19.218;2024-03-08T05:26:49;5.70;99.90
40758;DHT22;26462;47.384;19.218;2024-03-08T05:29:21;5.70;99.90
40758;DHT22;26462;47.384;19.218;2024-03-08T05:31:52;5.70;99.90
40758;DHT22;26462;47.384;19.218;2024-03-08T05:34:27;5.90;99.90
40758;DHT22;26462;47.384;19.218;2024-03-08T05:37:12;5.70;99.90
40758;DHT22;26462;47.384;19.218;2024-03-08T05:39:45;5.60;99.90
40758;DHT22;26462;47.384;19.218;2024-03-08T05:42:13;5.50;99.90
40758;DHT22;26462;47.384;19.218;2024-03-08T05:44:42;5.50;99.90
40758;DHT22;26462;47.384;19.218;2024-03-08T05:47:12;5.50;99.90
40758;DHT22;26462;47.384;19.218;2024-03-08T05:49:45;5.50;99.90
40758;DHT22;26462;47.384;19.218;2024-03-08T05:52:23;5.50;99.90
40758;DHT22;26462;47.384;19.218;2024-03-08T05:55:13;5.50;99.90
40758;DHT22;26462;47.384;19.218;2024-03-08T05:57:42;5.50;99.90
40758;DHT22;26462;47.384;19.218;2024-03-08T06:00:11;5.50;99.90
40758;DHT22;26462;47.384;19.218;2024-03-08T06:02:43;5.50;99.90
40758;DHT22;26462;47.384;19.218;2024-03-08T06:05:14;5.50;99.90
40758;DHT22;26462;47.384;19.218;2024-03-08T06:07:44;5.60;99.90
40758;DHT22;26462;47.384;19.218;2024-03-08T06:10:19;5.50;99.90
40758;DHT22;26462;47.384;19.218;2024-03-08T06:12:49;5.50;99.90
40758;DHT22;26462;47.384;19.218;2024-03-08T06:19:54;5.50;99.90
40758;DHT22;26462;47.384;19.218;2024-03-08T06:28:06;5.50;99.90
40758;DHT22;26462;47.384;19.218;2024-03-08T06:30:42;5.60;99.90
40758;DHT22;26462;47.384;19.218;2024-03-08T06:33:23;5.50;99.90
40758;DHT22;26462;47.384;19.218;2024-03-08T06:35:55;5.60;99.90
40758;DHT22;26462;47.384;19.218;2024-03-08T06:38:25;5.60;99.90
40758;DHT22;26462;47.384;19.218;2024-03-08T06:41:05;5.60;99.90
40758;DHT22;26462;47.384;19.218;2024-03-08T06:43:45;5.50;99.90
40758;DHT22;26462;47.384;19.218;2024-03-08T06:46:20;5.60;99.90
40758;DHT22;26462;47.384;19.218;2024-03-08T06:48:53;5.50;99.90
40758;DHT22;26462;47.384;19.218;2024-03-08T06:51:25;5.90;99.90
40758;DHT22;26462;47.384;19.218;2024-03-08T06:53:57;5.50;99.90
40758;DHT22;26462;47.384;19.218;2024-03-08T06:56:26;5.60;99.90
40758;DHT22;26462;47.384;19.218;2024-03-08T06:59:10;5.60;99.90
40758;DHT22;26462;47.384;19.218;2024-03-08T07:01:42;5.50;99.90
40758;DHT22;26462;47.384;19.218;2024-03-08T07:04:14;5.50;99.90
40758;DHT22;26462;47.384;19.218;2024-03-08T07:06:54;5.50;99.90
40758;DHT22;26462;47.384;19.218;2024-03-08T07:09:27;5.60;99.90
40758;DHT22;26462;47.384;19.218;2024-03-08T07:12:07;5.70;99.90
40758;DHT22;26462;47.384;19.218;2024-03-08T07:14:49;5.60;99.90
40758;DHT22;26462;47.384;19.218;2024-03-08T07:17:32;5.60;99.90
40758;DHT22;26462;47.384;19.218;2024-03-08T07:20:08;5.70;99.90
40758;DHT22;26462;47.384;19.218;2024-03-08T07:22:44;5.70;99.90
40758;DHT22;26462;47.384;19.218;2024-03-08T07:25:16;5.70;99.90
40758;DHT22;26462;47.384;19.218;2024-03-08T07:27:59;5.70;99.90
40758;DHT22;26462;47.384;19.218;2024-03-08T07:30:50;5.70;99.90
40758;DHT22;26462;47.384;19.218;2024-03-08T07:33:37;5.70;99.90
40758;DHT22;26462;47.384;19.218;2024-03-08T07:36:05;5.70;99.90
40758;DHT22;26462;47.384;19.218;2024-03-08T07:38:49;5.80;99.90
40758;DHT22;26462;47.384;19.218;2024-03-08T07:41:18;5.80;99.90
40758;DHT22;26462;47.384;19.218;2024-03-08T07:43:47;5.90;99.90
40758;DHT22;26462;47.384;19.218;2024-03-08T07:46:20;5.90;99.90
40758;DHT22;26462;47.384;19.218;2024-03-08T07:48:51;5.90;99.90
40758;DHT22;26462;47.384;19.218;2024-03-08T07:51:21;5.90;99.90
40758;DHT22;26462;47.384;19.218;2024-03-08T07:53:50;5.90;99.90
40758;DHT22;26462;47.384;19.218;2024-03-08T07:56:21;5.90;99.90
40758;DHT22;26462;47.384;19.218;2024-03-08T07:58:51;5.90;99.90
40758;DHT22;26462;47.384;19.218;2024-03-08T08:01:25;6.10;99.90
40758;DHT22;26462;47.384;19.218;2024-03-08T08:04:06;6.20;99.90
40758;DHT22;26462;47.384;19.218;2024-03-08T08:06:41;6.30;99.90
40758;DHT22;26462;47.384;19.218;2024-03-08T08:09:09;6.40;99.90
40758;DHT22;26462;47.384;19.218;2024-03-08T08:11:41;6.30;99.90
40758;DHT22;26462;47.384;19.218;2024-03-08T08:14:10;6.40;99.90
40758;DHT22;26462;47.384;19.218;2024-03-08T08:16:43;6.60;99.90
40758;DHT22;26462;47.384;19.218;2024-03-08T08:19:14;6.80;99.90
40758;DHT22;26462;47.384;19.218;2024-03-08T08:21:43;6.80;99.90
40758;DHT22;26462;47.384;19.218;2024-03-08T08:24:18;6.90;99.90
40758;DHT22;26462;47.384;19.218;2024-03-08T08:26:48;7.00;99.90
40758;DHT22;26462;47.384;19.218;2024-03-08T08:29:17;6.90;99.90
40758;DHT22;26462;47.384;19.218;2024-03-08T08:31:48;6.90;99.90
40758;DHT22;26462;47.384;19.218;2024-03-08T08:34:18;7.00;99.90
40758;DHT22;26462;47.384;19.218;2024-03-08T08:36:51;7.20;99.90
40758;DHT22;26462;47.384;19.218;2024-03-08T08:39:21;7.30;99.90
40758;DHT22;26462;47.384;19.218;2024-03-08T08:41:51;7.20;99.90
40758;DHT22;26462;47.384;19.218;2024-03-08T08:44:22;7.20;99.90
40758;DHT22;26462;47.384;19.218;2024-03-08T08:46:54;7.10;99.90
40758;DHT22;26462;47.384;19.218;2024-03-08T08:49:32;7.10;99.90
40758;DHT22;26462;47.384;19.218;2024-03-08T08:52:03;7.10;99.90
40758;DHT22;26462;47.384;19.218;2024-03-08T08:54:43;7.20;99.90
40758;DHT22;26462;47.384;19.218;2024-03-08T08:57:16;7.20;99.90
40758;DHT22;26462;47.384;19.218;2024-03-08T08:59:47;7.30;99.90
40758;DHT22;26462;47.384;19.218;2024-03-08T09:02:18;7.40;99.90
40758;DHT22;26462;47.384;19.218;2024-03-08T09:04:48;7.40;99.90
40758;DHT22;26462;47.384;19.218;2024-03-08T09:07:22;7.30;99.90
40758;DHT22;26462;47.384;19.218;2024-03-08T09:09:57;7.30;99.90
40758;DHT22;26462;47.384;19.218;2024-03-08T09:12:26;7.30;99.90
40758;DHT22;26462;47.384;19.218;2024-03-08T09:14:57;7.20;99.90
40758;DHT22;26462;47.384;19.218;2024-03-08T09:17:28;7.20;99.90
40758;DHT22;26462;47.384;19.218;2024-03-08T09:19:57;7.30;99.90
40758;DHT22;26462;47.384;19.218;2024-03-08T09:22:27;7.30;99.90
40758;DHT22;26462;47.384;19.218;2024-03-08T09:24:55;7.30;99.90
40758;DHT22;26462;47.384;19.218;2024-03-08T09:27:24;7.30;99.90
40758;DHT22;26462;47.384;19.218;2024-03-08T09:29:53;7.40;99.90
40758;DHT22;26462;47.384;19.218;2024-03-08T09:32:21;7.50;99.90
40758;DHT22;26462;47.384;19.218;2024-03-08T09:34:57;7.50;99.90
40758;DHT22;26462;47.384;19.218;2024-03-08T09:37:26;7.40;99.90
40758;DHT22;26462;47.384;19.218;2024-03-08T09:39:54;7.40;99.90
40758;DHT22;26462;47.384;19.218;2024-03-08T09:42:23;7.30;99.90
40758;DHT22;26462;47.384;19.218;2024-03-08T09:44:52;7.30;99.90
40758;DHT22;26462;47.384;19.218;2024-03-08T09:47:22;7.30;99.90
40758;DHT22;26462;47.384;19.218;2024-03-08T09:50:00;7.20;99.90
40758;DHT22;26462;47.384;19.218;2024-03-08T09:52:29;7.20;99.90
40758;DHT22;26462;47.384;19.218;2024-03-08T09:55:01;7.30;99.90
40758;DHT22;26462;47.384;19.218;2024-03-08T09:57:36;7.30;99.90
40758;DHT22;26462;47.384;19.218;2024-03-08T10:00:07;7.20;99.90
40758;DHT22;26462;47.384;19.218;2024-03-08T10:02:53;7.20;99.90
40758;DHT22;26462;47.384;19.218;2024-03-08T10:05:23;7.20;99.90
40758;DHT22;26462;47.384;19.218;2024-03-08T10:07:53;7.20;99.90
40758;DHT22;26462;47.384;19.218;2024-03-08T10:10:22;7.20;99.90
40758;DHT22;26462;47.384;19.218;2024-03-08T10:12:51;7.20;99.90
40758;DHT22;26462;47.384;19.218;2024-03-08T10:15:22;7.20;99.90
40758;DHT22;26462;47.384;19.218;2024-03-08T10:17:51;7.20;99.90
40758;DHT22;26462;47.384;19.218;2024-03-08T10:20:32;7.30;99.90
40758;DHT22;26462;47.384;19.218;2024-03-08T10:23:04;7.40;99.90
40758;DHT22;26462;47.384;19.218;2024-03-08T10:25:39;7.30;99.90
40758;DHT22;26462;47.384;19.218;2024-03-08T10:28:09;7.40;99.90
40758;DHT22;26462;47.384;19.218;2024-03-08T10:30:38;7.40;99.90
40758;DHT22;26462;47.384;19.218;2024-03-08T10:33:06;7.40;99.90
40758;DHT22;26462;47.384;19.218;2024-03-08T10:35:36;7.40;99.90
40758;DHT22;26462;47.384;19.218;2024-03-08T10:38:05;7.40;99.90
40758;DHT22;26462;47.384;19.218;2024-03-08T10:40:39;7.40;99.90
40758;DHT22;26462;47.384;19.218;2024-03-08T10:43:14;7.50;99.90
40758;DHT22;26462;47.384;19.218;2024-03-08T10:45:47;7.50;99.90
40758;DHT22;26462;47.384;19.218;2024-03-08T10:48:28;7.50;99.90
40758;DHT22;26462;47.384;19.218;2024-03-08T10:51:06;7.50;99.90
40758;DHT22;26462;47.384;19.218;2024-03-08T10:53:38;7.60;99.90
40758;DHT22;26462;47.384;19.218;2024-03-08T10:56:08;7.60;99.90
40758;DHT22;26462;47.384;19.218;2024-03-08T10:58:38;7.70;99.90
40758;DHT22;26462;47.384;19.218;2024-03-08T11:01:07;7.90;99.90
40758;DHT22;26462;47.384;19.218;2024-03-08T11:03:44;8.20;99.90
40758;DHT22;26462;47.384;19.218;2024-03-08T11:06:19;8.30;99.90
40758;DHT22;26462;47.384;19.218;2024-03-08T11:08:50;8.50;99.90
40758;DHT22;26462;47.384;19.218;2024-03-08T11:11:27;8.60;99.90
40758;DHT22;26462;47.384;19.218;2024-03-08T11:14:01;8.60;99.90
40758;DHT22;26462;47.384;19.218;2024-03-08T11:16:39;8.70;99.90
40758;DHT22;26462;47.384;19.218;2024-03-08T11:19:27;8.70;99.90
40758;DHT22;26462;47.384;19.218;2024-03-08T11:22:01;8.50;99.90
40758;DHT22;26462;47.384;19.218;2024-03-08T11:24:39;8.50;99.90
40758;DHT22;26462;47.384;19.218;2024-03-08T11:27:09;8.50;99.90
40758;DHT22;26462;47.384;19.218;2024-03-08T11:29:39;8.40;99.90
40758;DHT22;26462;47.384;19.218;2024-03-08T11:32:08;8.30;99.90
40758;DHT22;26462;47.384;19.218;2024-03-08T11:34:37;8.30;99.90
40758;DHT22;26462;47.384;19.218;2024-03-08T11:37:12;8.30;99.90
40758;DHT22;26462;47.384;19.218;2024-03-08T11:39:47;8.40;99.90
40758;DHT22;26462;47.384;19.218;2024-03-08T11:42:16;8.30;99.90
40758;DHT22;26462;47.384;19.218;2024-03-08T11:44:45;8.40;99.90
40758;DHT22;26462;47.384;19.218;2024-03-08T11:47:15;8.40;99.90
40758;DHT22;26462;47.384;19.218;2024-03-08T11:49:44;8.50;99.90
40758;DHT22;26462;47.384;19.218;2024-03-08T11:52:18;8.60;99.90
40758;DHT22;26462;47.384;19.218;2024-03-08T11:54:52;8.60;99.90
40758;DHT22;26462;47.384;19.218;2024-03-08T11:57:25;8.60;99.90
40758;DHT22;26462;47.384;19.218;2024-03-08T11:59:56;8.60;99.90
40758;DHT22;26462;47.384;19.218;2024-03-08T12:02:25;8.60;99.90
40758;DHT22;26462;47.384;19.218;2024-03-08T12:04:58;8.50;99.90
40758;DHT22;26462;47.384;19.218;2024-03-08T12:07:30;8.40;99.90
40758;DHT22;26462;47.384;19.218;2024-03-08T12:10:16;8.40;99.90
40758;DHT22;26462;47.384;19.218;2024-03-08T12:12:46;8.40;99.90
40758;DHT22;26462;47.384;19.218;2024-03-08T12:15:15;8.50;99.90
40758;DHT22;26462;47.384;19.218;2024-03-08T12:17:45;8.50;99.90
40758;DHT22;26462;47.384;19.218;2024-03-08T12:20:16;8.50;99.90
40758;DHT22;26462;47.384;19.218;2024-03-08T12:22:47;8.60;99.90
40758;DHT22;26462;47.384;19.218;2024-03-08T12:25:15;8.50;99.90
40758;DHT22;26462;47.384;19.218;2024-03-08T12:27:44;8.50;99.90
40758;DHT22;26462;47.384;19.218;2024-03-08T12:30:20;8.40;99.90
40758;DHT22;26462;47.384;19.218;2024-03-08T12:32:52;8.40;99.90
40758;DHT22;26462;47.384;19.218;2024-03-08T12:35:21;8.30;99.90
40758;DHT22;26462;47.384;19.218;2024-03-08T12:37:53;8.20;99.90
40758;DHT22;26462;47.384;19.218;2024-03-08T12:40:28;8.20;99.90
40758;DHT22;26462;47.384;19.218;2024-03-08T12:42:59;8.20;99.90
40758;DHT22;26462;47.384;19.218;2024-03-08T12:45:28;8.20;99.90
40758;DHT22;26462;47.384;19.218;2024-03-08T12:47:56;8.20;99.90
40758;DHT22;26462;47.384;19.218;2024-03-08T12:50:26;8.20;99.90
40758;DHT22;26462;47.384;19.218;2024-03-08T12:52:58;8.20;99.90
40758;DHT22;26462;47.384;19.218;2024-03-08T12:55:27;8.20;99.90
40758;DHT22;26462;47.384;19.218;2024-03-08T12:57:55;8.10;99.90
40758;DHT22;26462;47.384;19.218;2024-03-08T13:00:25;8.10;99.90
40758;DHT22;26462;47.384;19.218;2024-03-08T13:02:55;8.10;99.90
40758;DHT22;26462;47.384;19.218;2024-03-08T13:05:23;8.10;99.90
40758;DHT22;26462;47.384;19.218;2024-03-08T13:07:53;8.10;99.90
40758;DHT22;26462;47.384;19.218;2024-03-08T13:10:23;8.10;99.90
40758;DHT22;26462;47.384;19.218;2024-03-08T13:12:51;8.10;99.90
40758;DHT22;26462;47.384;19.218;2024-03-08T13:15:21;8.10;99.90
40758;DHT22;26462;47.384;19.218;2024-03-08T13:17:50;8.10;99.90
40758;DHT22;26462;47.384;19.218;2024-03-08T13:20:19;8.10;99.90
40758;DHT22;26462;47.384;19.218;2024-03-08T13:22:59;8.10;99.90
40758;DHT22;26462;47.384;19.218;2024-03-08T13:25:30;8.10;99.90
40758;DHT22;26462;47.384;19.218;2024-03-08T13:27:59;8.10;99.90
40758;DHT22;26462;47.384;19.218;2024-03-08T13:30:28;8.10;99.90
40758;DHT22;26462;47.384;19.218;2024-03-08T13:32:58;8.10;99.90
40758;DHT22;26462;47.384;19.218;2024-03-08T13:35:26;8.10;99.90
40758;DHT22;26462;47.384;19.218;2024-03-08T13:37:57;8.10;99.90
40758;DHT22;26462;47.384;19.218;2024-03-08T13:40:26;8.00;99.90
40758;DHT22;26462;47.384;19.218;2024-03-08T13:42:56;8.10;99.90
40758;DHT22;26462;47.384;19.218;2024-03-08T13:45:25;8.10;99.90
40758;DHT22;26462;47.384;19.218;2024-03-08T13:47:54;8.10;99.90
40758;DHT22;26462;47.384;19.218;2024-03-08T13:50:23;8.10;99.90
40758;DHT22;26462;47.384;19.218;2024-03-08T13:52:53;8.10;99.90
40758;DHT22;26462;47.384;19.218;2024-03-08T13:55:23;8.00;99.90
40758;DHT22;26462;47.384;19.218;2024-03-08T13:57:56;8.10;99.90
40758;DHT22;26462;47.384;19.218;2024-03-08T14:00:26;8.00;99.90
40758;DHT22;26462;47.384;19.218;2024-03-08T14:03:00;8.00;99.90
40758;DHT22;26462;47.384;19.218;2024-03-08T14:05:28;8.00;99.90
40758;DHT22;26462;47.384;19.218;2024-03-08T14:07:58;8.00;99.90
40758;DHT22;26462;47.384;19.218;2024-03-08T14:10:28;8.00;99.90
40758;DHT22;26462;47.384;19.218;2024-03-08T14:12:59;7.90;99.90
40758;DHT22;26462;47.384;19.218;2024-03-08T14:15:29;7.90;99.90
40758;DHT22;26462;47.384;19.218;2024-03-08T14:17:58;7.90;99.90
40758;DHT22;26462;47.384;19.218;2024-03-08T14:20:26;7.80;99.90
40758;DHT22;26462;47.384;19.218;2024-03-08T14:22:55;7.80;99.90
40758;DHT22;26462;47.384;19.218;2024-03-08T14:25:24;7.80;99.90
40758;DHT22;26462;47.384;19.218;2024-03-08T14:27:54;7.90;99.90
40758;DHT22;26462;47.384;19.218;2024-03-08T14:30:26;7.90;99.90
40758;DHT22;26462;47.384;19.218;2024-03-08T14:33:02;7.90;99.90
40758;DHT22;26462;47.384;19.218;2024-03-08T14:35:32;7.80;99.90
40758;DHT22;26462;47.384;19.218;2024-03-08T14:38:01;7.80;99.90
40758;DHT22;26462;47.384;19.218;2024-03-08T14:40:30;7.80;99.90
40758;DHT22;26462;47.384;19.218;2024-03-08T14:42:59;7.80;99.90
40758;DHT22;26462;47.384;19.218;2024-03-08T14:45:33;7.80;99.90
40758;DHT22;26462;47.384;19.218;2024-03-08T14:48:02;7.80;99.90
40758;DHT22;26462;47.384;19.218;2024-03-08T14:50:32;7.80;99.90
40758;DHT22;26462;47.384;19.218;2024-03-08T14:53:00;7.70;99.90
40758;DHT22;26462;47.384;19.218;2024-03-08T14:55:33;7.70;99.90
40758;DHT22;26462;47.384;19.218;2024-03-08T14:58:02;7.70;99.90
40758;DHT22;26462;47.384;19.218;2024-03-08T15:00:33;7.70;99.90
40758;DHT22;26462;47.384;19.218;2024-03-08T15:03:03;7.60;99.90
40758;DHT22;26462;47.384;19.218;2024-03-08T15:05:34;7.70;99.90
40758;DHT22;26462;47.384;19.218;2024-03-08T15:08:06;7.60;99.90
40758;DHT22;26462;47.384;19.218;2024-03-08T15:10:39;7.60;99.90
40758;DHT22;26462;47.384;19.218;2024-03-08T15:13:09;7.50;99.90
40758;DHT22;26462;47.384;19.218;2024-03-08T15:15:51;7.60;99.90
40758;DHT22;26462;47.384;19.218;2024-03-08T15:18:24;7.60;99.90
40758;DHT22;26462;47.384;19.218;2024-03-08T15:20:58;7.60;99.90
40758;DHT22;26462;47.384;19.218;2024-03-08T15:23:26;7.50;99.90
40758;DHT22;26462;47.384;19.218;2024-03-08T15:25:55;7.50;99.90
40758;DHT22;26462;47.384;19.218;2024-03-08T15:28:24;7.60;99.90
40758;DHT22;26462;47.384;19.218;2024-03-08T15:31:03;7.60;99.90
40758;DHT22;26462;47.384;19.218;2024-03-08T15:33:34;7.50;99.90
40758;DHT22;26462;47.384;19.218;2024-03-08T15:36:08;7.60;99.90
40758;DHT22;26462;47.384;19.218;2024-03-08T15:38:38;7.60;99.90
40758;DHT22;26462;47.384;19.218;2024-03-08T15:41:07;7.60;99.90
40758;DHT22;26462;47.384;19.218;2024-03-08T15:43:37;7.60;99.90
40758;DHT22;26462;47.384;19.218;2024-03-08T15:46:08;7.50;99.90
40758;DHT22;26462;47.384;19.218;2024-03-08T15:48:38;7.50;99.90
40758;DHT22;26462;47.384;19.218;2024-03-08T15:51:09;7.50;99.90
40758;DHT22;26462;47.384;19.218;2024-03-08T15:53:39;7.50;99.90
40758;DHT22;26462;47.384;19.218;2024-03-08T15:56:07;7.50;99.90
40758;DHT22;26462;47.384;19.218;2024-03-08T15:58:37;7.50;99.90
40758;DHT22;26462;47.384;19.218;2024-03-08T16:01:07;7.50;99.90
40758;DHT22;26462;47.384;19.218;2024-03-08T16:03:38;7.40;99.90
40758;DHT22;26462;47.384;19.218;2024-03-08T16:06:07;7.40;99.90